Time;durP1;ratioP1;P1;durP2;ratioP2;P2;SDS_P1;SDS_P2;PMS_P1;PMS_P2;Temp;Humidity;BMP_temperature;BMP_pressure;BME280_temperature;BME280_humidity;BME280_pressure;Samples;Min_cycle;Max_cycle;Signal;HPM_P1;HPM_P2
2022/06/16 00:04:47;;;;;;;4.65;2.00;;;;;;;13.88;72.82;100859.59;18421997;32;20115;-64
2022/06/16 00:14:52;;;;;;;3.75;2.10;;;;;;;14.40;70.09;100846.84;18421765;32;20377;-65
2022/06/16 00:24:55;;;;;;;4.20;2.25;;;;;;;14.34;71.04;100856.56;18421208;32;20093;-65
2022/06/16 00:35:00;;;;;;;3.12;2.10;;;;;;;14.01;72.64;100847.22;18420002;32;20441;-65
2022/06/16 00:45:24;;;;;;;3.35;2.00;;;;;;;14.04;71.72;100838.47;18420171;32;20150;-65
2022/06/16 00:55:29;;;;;;;5.12;2.70;;;;;;;14.01;72.39;100831.47;18419821;32;20137;-64
2022/06/16 01:05:33;;;;;;;4.90;2.58;;;;;;;13.15;75.69;100833.84;18419666;32;20734;-64
2022/06/16 01:15:46;;;;;;;4.12;2.28;;;;;;;13.97;73.01;100824.53;18418688;31;20417;-65
2022/06/16 01:25:58;;;;;;;3.95;2.35;;;;;;;13.91;72.43;100813.22;18418581;32;20116;-65
2022/06/16 01:36:04;;;;;;;;;;;;;;;13.59;74.80;100799.50;18419229;32;20110;-64
2022/06/16 01:46:11;;;;;;;5.55;2.28;;;;;;;13.87;73.03;100802.75;18421571;32;20328;-65
2022/06/16 01:56:18;;;;;;;4.47;2.58;;;;;;;13.87;73.87;100805.38;18426906;32;20430;-64
2022/06/16 02:06:24;;;;;;;6.50;2.70;;;;;;;13.20;76.05;100807.63;18426647;32;20107;-64
2022/06/16 02:16:31;;;;;;;6.47;2.50;;;;;;;13.09;75.49;100794.59;18426030;31;20089;-64
2022/06/16 02:26:35;;;;;;;4.37;2.50;;;;;;;13.56;74.34;100794.28;18425756;32;20100;-64
2022/06/16 02:36:53;;;;;;;5.57;2.80;;;;;;;13.72;72.91;100792.41;18425223;32;20441;-64
2022/06/16 02:47:01;;;;;;;4.68;2.75;;;;;;;13.95;71.79;100789.56;18425081;32;20327;-64
2022/06/16 02:57:08;;;;;;;4.70;2.55;;;;;;;12.88;76.87;100796.44;18424104;31;20085;-64
2022/06/16 03:07:12;;;;;;;5.05;3.00;;;;;;;13.88;72.19;100811.50;18424259;32;20093;-64
2022/06/16 03:17:17;;;;;;;5.60;2.70;;;;;;;13.59;72.96;100810.84;18423759;31;20096;-64
2022/06/16 03:27:20;;;;;;;5.75;2.95;;;;;;;13.48;73.23;100814.47;18424586;32;20115;-65
2022/06/16 03:37:25;;;;;;;5.87;2.50;;;;;;;13.09;76.16;100812.06;18423267;32;20801;-65
2022/06/16 03:47:28;;;;;;;6.93;3.12;;;;;;;13.10;77.82;100816.41;18422741;32;20377;-64
2022/06/16 03:57:33;;;;;;;7.37;3.15;;;;;;;13.44;78.32;100817.09;18422487;32;20157;-64
2022/06/16 04:07:37;;;;;;;6.65;3.00;;;;;;;14.13;75.60;100821.72;18447346;31;20104;-65
2022/06/16 04:17:41;;;;;;;5.82;3.03;;;;;;;14.81;74.35;100817.50;18421508;31;20515;-65
2022/06/16 04:27:45;;;;;;;7.22;2.95;;;;;;;15.76;71.69;100816.94;18421121;32;20101;-65
2022/06/16 04:37:50;;;;;;;4.62;2.58;;;;;;;18.17;63.88;100824.09;18420667;32;20452;-65
2022/06/16 04:47:53;;;;;;;3.47;2.08;;;;;;;20.00;56.44;100817.66;18420175;32;20100;-66
2022/06/16 04:57:58;;;;;;;6.50;2.25;;;;;;;22.04;49.39;100808.00;18419883;32;20089;-66
2022/06/16 05:08:02;;;;;;;3.85;1.80;;;;;;;22.91;47.42;100803.22;18420206;32;20100;-66
2022/06/16 05:18:07;;;;;;;3.22;1.83;;;;;;;21.85;50.04;100807.91;18418136;31;20468;-66
2022/06/16 05:28:11;;;;;;;2.67;1.50;;;;;;;22.72;46.62;100803.22;18419455;32;20127;-66
2022/06/16 05:38:15;;;;;;;2.65;1.50;;;;;;;23.07;46.56;100807.78;18388826;32;20142;-66
2022/06/16 05:48:19;;;;;;;2.67;1.65;;;;;;;21.88;48.09;100806.94;18352194;32;20112;-66
2022/06/16 05:58:24;;;;;;;2.05;1.40;;;;;;;23.03;47.30;100796.44;18353155;32;20088;-66
2022/06/16 06:18:49;;;;;;;3.75;1.77;;;;;;;23.76;45.94;100800.88;18351840;32;20455;-66
2022/06/16 06:28:52;;;;;;;4.68;1.70;;;;;;;23.28;44.50;100796.13;18351408;32;20100;-67
2022/06/16 06:38:57;;;;;;;2.10;1.50;;;;;;;23.76;43.74;100800.00;18361053;32;20111;-66
2022/06/16 06:49:00;;;;;;;2.75;1.35;;;;;;;23.54;42.15;100795.78;18360909;32;20101;-66
2022/06/16 06:59:07;;;;;;;2.97;1.60;;;;;;;23.60;40.98;100800.78;18361172;32;20126;-67
2022/06/16 07:09:11;;;;;;;3.15;1.30;;;;;;;24.78;39.66;100802.63;18362959;32;20731;-67
2022/06/16 07:19:15;;;;;;;2.42;1.40;;;;;;;27.20;31.15;100785.50;18438991;31;20476;-67
2022/06/16 07:29:18;;;;;;;2.70;1.30;;;;;;;26.66;35.17;100788.03;18422175;32;20427;-67
2022/06/16 07:39:23;;;;;;;2.50;1.20;;;;;;;28.60;32.63;100767.88;18423443;32;20372;-67
2022/06/16 07:49:29;;;;;;;2.28;1.35;;;;;;;28.00;32.48;100765.81;18387572;31;20090;-67
2022/06/16 07:59:34;;;;;;;3.08;1.15;;;;;;;28.14;35.43;100772.00;18358694;32;20113;-67
2022/06/16 08:09:38;;;;;;;3.17;1.67;;;;;;;27.94;34.96;100767.09;18357365;32;20390;-67
2022/06/16 08:19:44;;;;;;;3.22;1.70;;;;;;;27.81;34.30;100752.81;18395775;31;20191;-67
2022/06/16 08:29:48;;;;;;;1.85;1.33;;;;;;;27.95;36.48;100746.47;18399883;32;20097;-66
2022/06/16 08:39:52;;;;;;;2.72;1.37;;;;;;;29.84;33.00;100747.88;18387311;32;20140;-66
2022/06/16 08:50:01;;;;;;;5.55;3.25;;;;;;;30.28;29.49;100750.72;18356359;32;20120;-66
2022/06/16 09:00:09;;;;;;;4.72;1.20;;;;;;;29.10;30.61;100759.75;18355242;32;20425;-66
2022/06/16 09:10:24;;;;;;;4.57;1.50;;;;;;;29.70;27.54;100756.16;18355035;32;20097;-66
2022/06/16 09:20:35;;;;;;;3.03;1.30;;;;;;;29.87;27.42;100753.03;18354840;32;20498;-66
2022/06/16 09:30:41;;;;;;;3.75;1.73;;;;;;;30.40;25.84;100731.87;18354299;32;20085;-66
2022/06/16 09:40:49;;;;;;;4.72;1.67;;;;;;;30.16;28.07;100717.56;18353954;32;20366;-66
2022/06/16 09:50:54;;;;;;;2.92;1.42;;;;;;;30.28;26.58;100717.56;18353368;32;20085;-67
2022/06/16 10:01:03;;;;;;;4.80;1.85;;;;;;;30.03;28.08;100708.75;18352944;32;20477;-66
2022/06/16 10:11:12;;;;;;;2.23;1.40;;;;;;;30.12;28.70;100713.44;18413269;31;20157;-66
2022/06/16 10:21:17;;;;;;;2.70;1.60;;;;;;;30.50;28.81;100703.19;18362985;32;20104;-67
2022/06/16 10:31:38;;;;;;;2.97;1.48;;;;;;;31.54;24.78;100699.09;18361759;32;20108;-66
2022/06/16 10:41:52;;;;;;;2.80;1.30;;;;;;;30.86;26.03;100703.84;18361607;31;20101;-66
2022/06/16 10:51:58;;;;;;;4.97;1.50;;;;;;;30.97;25.73;100699.38;18361663;32;20461;-66
2022/06/16 11:02:16;;;;;;;3.83;1.40;;;;;;;30.92;24.67;100693.53;18360861;32;20107;-66
2022/06/16 11:12:22;;;;;;;3.42;1.45;;;;;;;31.07;25.06;100681.44;18413068;31;20096;-66
2022/06/16 11:22:31;;;;;;;3.50;1.50;;;;;;;31.65;25.03;100663.94;18359249;32;20362;-66
2022/06/16 11:32:37;;;;;;;2.78;1.40;;;;;;;32.15;25.22;100645.25;18359635;32;20093;-66
2022/06/16 11:42:54;;;;;;;1.92;1.27;;;;;;;30.68;24.40;100635.34;18358929;31;20097;-66
2022/06/16 11:53:06;;;;;;;2.62;1.70;;;;;;;31.63;25.28;100628.16;18372246;32;20069;-66
2022/06/16 12:03:34;;;;;;;4.37;1.50;;;;;;;31.51;25.57;100616.59;18476392;31;20444;-66
2022/06/16 12:13:45;;;;;;;4.10;1.55;;;;;;;32.40;22.45;100602.53;18421697;32;20080;-66
2022/06/16 12:23:58;;;;;;;2.53;1.27;;;;;;;31.89;24.15;100605.25;18421040;32;20126;-66
2022/06/16 12:34:05;;;;;;;2.70;1.50;;;;;;;31.81;25.53;100608.66;18419782;32;20452;-67
2022/06/16 12:44:12;;;;;;;4.22;2.10;;;;;;;32.10;27.74;100613.25;18420815;32;20372;-66
2022/06/16 12:54:20;;;;;;;3.55;1.60;;;;;;;32.54;24.99;100594.00;18420142;32;20342;-66
2022/06/16 13:04:27;;;;;;;1.45;1.30;;;;;;;32.73;22.54;100566.09;18420931;32;20089;-66
2022/06/16 13:14:33;;;;;;;18.05;3.35;;;;;;;32.54;23.01;100545.34;18472668;31;20105;-66
2022/06/16 13:24:40;;;;;;;3.37;1.90;;;;;;;32.89;22.65;100527.66;18417201;32;20160;-65
2022/06/16 13:34:55;;;;;;;1.58;1.40;;;;;;;32.73;21.67;100516.59;18418187;32;20115;-67
2022/06/16 13:45:35;;;;;;;3.87;1.77;;;;;;;32.19;22.97;100531.41;18424450;32;20425;-65
2022/06/16 13:55:44;;;;;;;3.27;1.50;;;;;;;32.18;23.69;100513.50;18466327;31;20118;-66
2022/06/16 14:05:53;;;;;;;2.83;1.90;;;;;;;31.82;23.32;100497.00;18427124;32;20795;-66
2022/06/16 14:16:21;;;;;;;1.87;1.52;;;;;;;31.79;24.22;100495.41;18426167;31;20112;-66
2022/06/16 14:26:26;;;;;;;2.72;1.60;;;;;;;32.01;21.58;100479.12;18426304;32;20356;-66
2022/06/16 14:36:38;;;;;;;2.55;1.33;;;;;;;32.39;20.96;100461.22;18425700;32;20145;-66
2022/06/16 14:46:48;;;;;;;2.40;1.40;;;;;;;31.85;22.72;100440.03;18425658;32;20161;-66
2022/06/16 14:56:56;;;;;;;1.70;1.27;;;;;;;31.82;20.41;100424.16;18420272;32;20373;-65
2022/06/16 15:07:02;;;;;;;4.22;1.98;;;;;;;31.23;24.86;100413.22;18425484;32;20148;-66
2022/06/16 15:27:35;;;;;;;3.90;1.55;;;;;;;30.95;25.30;100407.63;18476498;31;20107;-66
2022/06/16 15:37:40;;;;;;;3.00;1.33;;;;;;;30.35;24.35;100405.56;18423094;32;20177;-66
2022/06/16 15:47:44;;;;;;;2.30;1.50;;;;;;;30.65;26.55;100409.34;18422909;32;20132;-66
2022/06/16 15:57:49;;;;;;;3.15;1.58;;;;;;;30.71;25.70;100414.16;18422162;32;20093;-65
2022/06/16 16:07:53;;;;;;;2.78;1.70;;;;;;;30.45;26.92;100414.59;18417852;32;83819;-66
2022/06/16 16:18:00;;;;;;;5.80;2.00;;;;;;;30.15;29.06;100408.16;18421539;31;20089;-66
2022/06/16 16:28:04;;;;;;;4.95;1.92;;;;;;;29.94;30.83;100400.88;18474920;31;20115;-66
2022/06/16 16:38:31;;;;;;;5.00;2.03;;;;;;;29.61;31.29;100400.06;18420862;32;20097;-66
2022/06/16 16:48:48;;;;;;;4.45;2.10;;;;;;;29.31;32.57;100385.44;18422164;32;20165;-66
2022/06/16 16:58:54;;;;;;;4.40;2.00;;;;;;;29.39;32.57;100374.91;18421112;32;20104;-66
2022/06/16 17:08:57;;;;;;;6.07;2.50;;;;;;;29.31;33.93;100390.81;18419548;32;20084;-66
2022/06/16 17:19:02;;;;;;;6.68;2.60;;;;;;;29.16;35.14;100385.72;18418095;31;20402;-66
2022/06/16 17:29:06;;;;;;;5.07;1.98;;;;;;;28.82;36.77;100407.19;18419426;32;20119;-66
2022/06/16 17:39:13;;;;;;;9.45;2.55;;;;;;;28.18;39.40;100417.47;18417864;32;20115;-66
2022/06/16 17:49:17;;;;;;;5.12;2.55;;;;;;;27.81;42.34;100434.53;18472246;31;20499;-65
2022/06/16 18:09:42;;;;;;;4.40;1.98;;;;;;;26.87;43.50;100450.16;18416414;32;20097;-66
2022/06/16 18:19:47;;;;;;;6.90;2.12;;;;;;;27.11;40.82;100458.31;18415664;31;20097;-66
2022/06/16 18:29:50;;;;;;;5.15;2.37;;;;;;;26.83;42.00;100449.50;18421238;32;20137;-66
2022/06/16 18:39:55;;;;;;;7.72;2.67;;;;;;;26.49;44.49;100456.38;18425426;32;20111;-66
2022/06/16 18:49:59;;;;;;;3.78;1.85;;;;;;;26.52;43.13;100477.56;18424660;32;20177;-66
2022/06/16 19:00:05;;;;;;;4.40;2.10;;;;;;;26.59;43.10;100492.25;18424318;32;20097;-66
2022/06/16 19:10:18;;;;;;;4.50;2.10;;;;;;;26.78;42.38;100499.00;18423808;32;20112;-66
2022/06/16 19:20:24;;;;;;;3.80;1.23;;;;;;;26.54;42.48;100609.44;18476052;31;20141;-66
2022/06/16 19:30:29;;;;;;;2.12;0.73;;;;;;;24.71;39.00;100685.56;18423392;32;20080;-66
2022/06/16 19:40:35;;;;;;;4.55;0.93;;;;;;;23.81;41.12;100710.84;18422726;32;20490;-67
2022/06/16 19:50:48;;;;;;;1.10;0.50;;;;;;;22.76;44.89;100714.31;18476135;31;20115;-66
2022/06/16 20:00:55;;;;;;;1.75;0.70;;;;;;;21.45;54.13;100738.75;18422628;32;20425;-65
2022/06/16 20:10:59;;;;;;;1.98;1.02;;;;;;;20.59;60.23;100772.25;18422177;32;20107;-65
2022/06/16 20:21:06;;;;;;;4.62;1.15;;;;;;;19.51;68.92;100809.56;18474897;31;20145;-65
2022/06/16 20:31:10;;;;;;;4.95;1.33;;;;;;;19.03;73.21;100856.06;18420324;32;20777;-66
2022/06/16 20:51:48;;;;;;;2.40;1.30;;;;;;;19.96;69.02;100726.81;18536334;32;20120;-65
2022/06/16 21:01:56;;;;;;;1.42;1.00;;;;;;;18.83;76.39;100734.06;18549764;32;20185;-65
2022/06/16 21:22:25;;;;;;;1.35;0.88;;;;;;;18.13;78.33;100699.16;18481013;32;20088;-65
2022/06/16 21:32:28;;;;;;;1.52;1.30;;;;;;;18.74;76.32;100659.44;18407481;32;20094;-65
2022/06/16 21:42:33;;;;;;;3.35;1.40;;;;;;;19.24;72.38;100667.50;18354179;32;20402;-65
2022/06/16 21:52:36;;;;;;;3.62;1.40;;;;;;;18.65;74.51;100664.09;18353672;32;20097;-65
2022/06/16 22:02:41;;;;;;;2.25;1.15;;;;;;;18.21;77.12;100651.34;18356661;32;20102;-65
2022/06/16 22:12:45;;;;;;;2.75;1.40;;;;;;;17.61;79.56;100640.72;18362741;32;20089;-65
2022/06/16 22:22:50;;;;;;;3.72;1.30;;;;;;;17.99;77.09;100635.25;18363352;32;20351;-65
2022/06/16 22:32:53;;;;;;;4.05;1.60;;;;;;;18.30;74.64;100639.63;18362098;32;20115;-65
2022/06/16 22:43:02;;;;;;;2.95;1.45;;;;;;;18.78;73.55;100639.91;18361530;32;20346;-66
2022/06/16 22:53:05;;;;;;;3.70;1.58;;;;;;;18.26;74.72;100638.00;18361144;32;20331;-66
2022/06/16 23:03:14;;;;;;;3.90;1.90;;;;;;;18.32;75.02;100626.38;18361033;32;20107;-66
2022/06/16 23:13:18;;;;;;;4.28;1.70;;;;;;;17.65;77.79;100639.72;18360685;32;20773;-65
2022/06/16 23:23:25;;;;;;;2.30;1.60;;;;;;;17.56;76.87;100629.41;18413564;31;20434;-66
2022/06/16 23:33:31;;;;;;;2.55;1.35;;;;;;;17.82;75.28;100614.62;18359858;32;20089;-66
2022/06/16 23:43:35;;;;;;;3.58;1.73;;;;;;;17.24;78.51;100616.19;18412214;31;20387;-66
2022/06/16 23:53:39;;;;;;;3.50;1.70;;;;;;;17.13;79.23;100605.94;18359315;32;20093;-66
